createdAt,value
2019-02-14T00:01:05.561Z,31.93
2019-02-14T00:03:35.239Z,31.20
2019-02-14T00:06:05.354Z,31.00
2019-02-14T00:08:35.024Z,31.33
2019-02-14T00:11:04.761Z,27.10
2019-02-14T00:13:34.429Z,33.97
2019-02-14T00:16:05.105Z,30.07
2019-02-14T00:18:34.794Z,32.00
2019-02-14T00:21:04.994Z,31.33
2019-02-14T00:23:34.665Z,30.77
2019-02-14T00:26:05.142Z,28.67
2019-02-14T00:28:34.815Z,31.03
2019-02-14T00:31:04.876Z,29.57
2019-02-14T00:33:34.623Z,28.93
2019-02-14T00:36:05.166Z,30.32
2019-02-14T00:38:34.850Z,31.00
2019-02-14T00:41:05.077Z,30.07
2019-02-14T00:43:34.747Z,39.70
2019-02-14T00:46:05.923Z,29.98
2019-02-14T00:48:36.558Z,31.07
2019-02-14T00:51:06.483Z,31.60
2019-02-14T00:53:36.158Z,30.33
2019-02-14T00:56:05.869Z,30.10
2019-02-14T00:58:35.538Z,33.17
2019-02-14T01:01:05.214Z,26.53
2019-02-14T01:03:34.885Z,25.70
2019-02-14T01:06:04.792Z,34.07
2019-02-14T01:08:34.457Z,28.97
2019-02-14T01:11:04.968Z,28.98
2019-02-14T01:13:34.641Z,28.80
2019-02-14T01:16:05.325Z,29.87
2019-02-14T01:18:34.994Z,31.77
2019-02-14T01:21:04.914Z,34.03
2019-02-14T01:23:34.578Z,40.07
2019-02-14T01:26:05.008Z,42.88
2019-02-14T01:28:35.437Z,38.17
2019-02-14T01:31:05.259Z,42.40
2019-02-14T01:33:34.965Z,42.07
2019-02-14T01:36:05.310Z,38.43
2019-02-14T01:38:35.074Z,39.07
2019-02-14T01:41:05.193Z,44.93
2019-02-14T01:43:35.190Z,37.33
2019-02-14T01:46:05.015Z,36.80
2019-02-14T01:48:34.934Z,36.37
2019-02-14T01:51:05.121Z,35.95
2019-02-14T01:53:35.022Z,38.03
2019-02-14T01:56:04.775Z,42.23
2019-02-14T01:58:34.496Z,35.20
2019-02-14T02:01:05.337Z,35.65
2019-02-14T02:03:35.073Z,36.60
2019-02-14T02:06:05.228Z,36.77
2019-02-14T02:08:34.889Z,31.20
2019-02-14T02:11:05.500Z,32.97
2019-02-14T02:13:35.637Z,28.57
2019-02-14T02:16:05.375Z,39.50
2019-02-14T02:18:37.197Z,33.90
2019-02-14T02:21:06.870Z,34.90
2019-02-14T02:23:36.789Z,31.77
2019-02-14T02:26:06.488Z,32.30
2019-02-14T02:28:36.156Z,36.73
2019-02-14T02:31:05.921Z,32.83
2019-02-14T02:33:35.586Z,30.90
2019-02-14T02:36:05.400Z,32.27
2019-02-14T02:38:35.357Z,25.67
2019-02-14T02:41:05.089Z,30.32
2019-02-14T02:43:34.772Z,34.63
2019-02-14T02:46:04.859Z,35.07
2019-02-14T02:48:34.528Z,33.40
2019-02-14T02:51:05.090Z,31.75
2019-02-14T02:53:35.476Z,33.13
2019-02-14T02:56:05.670Z,31.53
2019-02-14T02:58:35.573Z,30.03
2019-02-14T03:01:05.295Z,26.60
2019-02-14T03:03:35.043Z,29.57
2019-02-14T03:06:10.480Z,29.82
2019-02-14T03:08:36.276Z,31.10
2019-02-14T03:11:05.977Z,29.93
2019-02-14T03:13:35.650Z,29.83
2019-02-14T03:16:05.326Z,25.60
2019-02-14T03:18:34.998Z,29.80
2019-02-14T03:21:05.235Z,30.82
2019-02-14T03:23:35.244Z,27.63
2019-02-14T03:26:04.909Z,25.93
2019-02-14T03:28:34.586Z,29.20
2019-02-14T03:31:05.078Z,26.67
2019-02-14T03:33:34.757Z,22.77
2019-02-14T03:36:05.596Z,22.90
2019-02-14T03:38:35.531Z,26.67
2019-02-14T03:41:05.371Z,27.97
2019-02-14T03:43:35.043Z,25.07
2019-02-14T03:46:05.032Z,26.03
2019-02-14T03:48:34.698Z,25.37
2019-02-14T03:51:05.440Z,25.40
2019-02-14T03:53:35.119Z,25.50
2019-02-14T03:56:04.812Z,23.33
2019-02-14T03:58:34.490Z,21.17
2019-02-14T04:01:04.915Z,23.73
2019-02-14T04:03:35.633Z,23.50
2019-02-14T04:06:05.377Z,27.27
2019-02-14T04:08:35.196Z,24.40
2019-02-14T04:11:05.512Z,21.27
2019-02-14T04:13:35.193Z,24.77
2019-02-14T04:16:05.365Z,24.57
2019-02-14T04:18:35.031Z,25.30
2019-02-14T04:21:04.904Z,21.47
2019-02-14T04:23:34.570Z,20.57
2019-02-14T04:26:04.993Z,19.60
2019-02-14T04:28:34.675Z,19.77
2019-02-14T04:31:05.251Z,20.90
2019-02-14T04:33:34.921Z,19.70
2019-02-14T04:36:05.001Z,19.50
2019-02-14T04:38:34.671Z,22.07
2019-02-14T04:41:05.222Z,23.27
2019-02-14T04:43:34.889Z,20.63
2019-02-14T04:46:05.609Z,20.20
2019-02-14T04:48:35.281Z,24.37
2019-02-14T04:51:05.234Z,25.80
2019-02-14T04:53:34.915Z,25.97
2019-02-14T04:56:05.185Z,22.95
2019-02-14T04:58:34.863Z,22.87
2019-02-14T05:01:05.034Z,22.80
2019-02-14T05:03:34.703Z,24.60
2019-02-14T05:06:05.353Z,24.57
2019-02-14T05:08:35.031Z,22.87
2019-02-14T05:11:05.186Z,19.90
2019-02-14T05:13:34.858Z,22.57
2019-02-14T05:16:04.896Z,24.40
2019-02-14T05:18:34.577Z,22.67
2019-02-14T05:21:05.525Z,25.27
2019-02-14T05:23:35.194Z,24.87
2019-02-14T05:26:05.192Z,26.35
2019-02-14T05:28:34.871Z,27.20
2019-02-14T05:31:04.875Z,26.60
2019-02-14T05:33:34.996Z,25.53
2019-02-14T05:36:05.090Z,25.70
2019-02-14T05:38:34.779Z,26.03
2019-02-14T05:41:05.233Z,26.07
2019-02-14T05:43:34.916Z,28.37
2019-02-14T05:46:04.738Z,26.37
2019-02-14T05:48:34.429Z,25.77
2019-02-14T05:51:04.922Z,21.62
2019-02-14T05:53:34.615Z,24.03
2019-02-14T05:56:05.238Z,25.62
2019-02-14T05:58:35.174Z,20.62
2019-02-14T06:01:05.310Z,23.67
2019-02-14T06:03:35.455Z,20.63
2019-02-14T06:06:05.139Z,21.97
2019-02-14T06:08:34.808Z,21.90
2019-02-14T06:11:04.985Z,25.72
2019-02-14T06:13:34.664Z,22.90
2019-02-14T06:16:05.260Z,24.15
2019-02-14T06:18:34.929Z,24.53
2019-02-14T06:21:05.625Z,22.13
2019-02-14T06:23:35.300Z,28.97
2019-02-14T06:26:05.022Z,21.90
2019-02-14T06:28:34.698Z,22.10
2019-02-14T06:31:05.112Z,23.10
2019-02-14T06:33:34.798Z,24.17
2019-02-14T06:36:05.114Z,26.63
2019-02-14T06:38:34.862Z,24.53
2019-02-14T06:41:04.731Z,26.68
2019-02-14T06:43:34.413Z,27.77
2019-02-14T06:46:04.967Z,20.20
2019-02-14T06:48:34.931Z,23.03
2019-02-14T06:51:04.964Z,21.43
2019-02-14T06:53:34.637Z,21.70
2019-02-14T06:56:05.161Z,21.80
2019-02-14T06:58:35.594Z,19.40
2019-02-14T07:01:05.310Z,21.20
2019-02-14T07:03:35.362Z,18.40
2019-02-14T07:06:05.215Z,20.82
2019-02-14T07:08:34.911Z,20.17
2019-02-14T07:11:05.208Z,22.02
2019-02-14T07:13:35.128Z,20.13
2019-02-14T07:16:04.872Z,20.27
2019-02-14T07:18:34.535Z,23.87
2019-02-14T07:21:04.980Z,19.83
2019-02-14T07:23:34.677Z,20.00
2019-02-14T07:26:05.112Z,22.22
2019-02-14T07:28:34.787Z,23.93
2019-02-14T07:31:05.201Z,21.85
2019-02-14T07:33:34.882Z,22.50
2019-02-14T07:36:04.775Z,22.57
2019-02-14T07:38:34.449Z,23.37
2019-02-14T07:41:05.049Z,20.73
2019-02-14T07:43:34.732Z,20.13
2019-02-14T07:46:05.280Z,21.40
2019-02-14T07:48:35.171Z,20.33
2019-02-14T07:51:05.018Z,24.50
2019-02-14T07:53:34.695Z,26.00
2019-02-14T07:56:05.031Z,25.12
2019-02-14T07:58:34.701Z,24.73
2019-02-14T08:01:05.276Z,24.53
2019-02-14T08:03:34.960Z,29.53
2019-02-14T08:06:04.935Z,29.93
2019-02-14T08:08:34.603Z,26.77
2019-02-14T08:11:04.994Z,26.27
2019-02-14T08:13:34.752Z,26.57
2019-02-14T08:16:05.189Z,26.07
2019-02-14T08:18:34.862Z,28.03
2019-02-14T08:21:05.504Z,29.97
2019-02-14T08:23:35.172Z,25.07
2019-02-14T08:26:10.676Z,24.30
2019-02-14T08:28:36.248Z,24.37
2019-02-14T08:31:05.958Z,25.90
2019-02-14T08:33:35.632Z,23.83
2019-02-14T08:36:05.297Z,23.57
2019-02-14T08:38:34.997Z,24.50
2019-02-14T08:41:05.143Z,25.20
2019-02-14T08:43:34.856Z,27.63
2019-02-14T08:46:05.015Z,25.12
2019-02-14T08:48:34.691Z,24.90
2019-02-14T08:51:05.109Z,22.48
2019-02-14T08:53:35.312Z,24.77
2019-02-14T08:56:05.358Z,25.90
2019-02-14T08:58:35.040Z,22.67
2019-02-14T09:01:04.955Z,29.97
2019-02-14T09:03:34.652Z,26.40
2019-02-14T09:06:04.925Z,24.80
2019-02-14T09:08:34.673Z,24.87
2019-02-14T09:11:05.008Z,22.63
2019-02-14T09:13:34.745Z,26.37
2019-02-14T09:16:05.469Z,25.27
2019-02-14T09:18:35.551Z,23.43
2019-02-14T09:21:05.479Z,23.77
2019-02-14T09:23:35.188Z,23.70
2019-02-14T09:26:05.065Z,23.12
2019-02-14T09:28:34.735Z,22.77
2019-02-14T09:31:05.343Z,23.62
2019-02-14T09:33:35.211Z,23.07
2019-02-14T09:36:04.897Z,21.10
2019-02-14T09:38:34.569Z,24.23
2019-02-14T09:41:05.234Z,22.52
2019-02-14T09:43:35.162Z,21.63
2019-02-14T09:46:05.400Z,20.53
2019-02-14T09:48:35.381Z,20.83
2019-02-14T09:51:05.147Z,20.77
2019-02-14T09:53:35.077Z,19.37
2019-02-14T09:56:05.027Z,19.00
2019-02-14T09:58:34.703Z,17.47
2019-02-14T10:01:05.244Z,15.13
2019-02-14T10:03:34.986Z,16.40
2019-02-14T10:06:05.072Z,18.47
2019-02-14T10:08:34.740Z,17.10
2019-02-14T10:11:05.109Z,18.07
2019-02-14T10:13:35.009Z,14.63
2019-02-14T10:16:05.197Z,15.57
2019-02-14T10:18:34.882Z,16.87
2019-02-14T10:21:04.731Z,13.13
2019-02-14T10:23:34.403Z,13.87
2019-02-14T10:26:05.114Z,15.48
2019-02-14T10:28:34.792Z,15.80
2019-02-14T10:31:05.201Z,12.23
2019-02-14T10:33:34.888Z,12.23
2019-02-14T10:36:04.985Z,15.75
2019-02-14T10:38:34.650Z,15.43
2019-02-14T10:41:04.976Z,11.28
2019-02-14T10:43:34.655Z,12.73
2019-02-14T10:46:05.040Z,14.33
2019-02-14T10:48:34.951Z,13.00
2019-02-14T10:51:04.768Z,11.60
2019-02-14T10:53:34.433Z,11.50
2019-02-14T10:56:05.149Z,11.95
2019-02-14T10:58:35.070Z,10.90
2019-02-14T11:01:05.378Z,11.97
2019-02-14T11:03:35.297Z,11.97
2019-02-14T11:06:05.207Z,10.73
2019-02-14T11:08:34.965Z,11.93
2019-02-14T11:11:04.857Z,12.23
2019-02-14T11:13:34.535Z,13.63
2019-02-14T11:16:06.220Z,12.43
2019-02-14T11:18:43.887Z,11.63
2019-02-14T11:21:07.683Z,12.30
2019-02-14T11:23:37.358Z,11.23
2019-02-14T11:26:08.680Z,11.80
2019-02-14T11:28:38.439Z,11.40
2019-02-14T11:31:08.115Z,8.83
2019-02-14T11:33:38.030Z,8.20
2019-02-14T11:36:08.675Z,9.17
2019-02-14T11:38:40.547Z,7.53
2019-02-14T11:41:09.963Z,7.60
2019-02-14T11:43:39.979Z,7.23
2019-02-14T11:46:09.596Z,7.73
2019-02-14T11:48:39.268Z,7.80
2019-02-14T11:51:08.935Z,7.73
2019-02-14T11:53:38.606Z,7.47
2019-02-14T11:56:09.959Z,6.83
2019-02-14T11:58:39.740Z,6.90
2019-02-14T12:01:09.553Z,5.77
2019-02-14T12:03:39.843Z,5.83
2019-02-14T12:06:09.526Z,9.37
2019-02-14T12:08:39.209Z,7.53
2019-02-14T12:11:08.880Z,6.60
2019-02-14T12:13:39.572Z,6.33
2019-02-14T12:16:09.305Z,6.12
2019-02-14T12:18:38.978Z,6.03
2019-02-14T12:21:08.640Z,5.30
2019-02-14T12:23:38.311Z,5.43
2019-02-14T12:26:08.018Z,5.33
2019-02-14T12:28:37.661Z,5.50
2019-02-14T12:31:07.343Z,5.30
2019-02-14T12:33:37.009Z,6.67
2019-02-14T12:36:06.663Z,5.43
2019-02-14T12:38:36.353Z,5.70
2019-02-14T12:41:06.032Z,5.53
2019-02-14T12:43:35.711Z,6.30
2019-02-14T12:46:05.380Z,5.90
2019-02-14T12:48:35.042Z,6.20
2019-02-14T12:51:04.955Z,6.07
2019-02-14T12:53:34.683Z,5.37
2019-02-14T12:56:05.142Z,6.20
2019-02-14T12:58:34.820Z,6.93
2019-02-14T13:01:05.222Z,6.17
2019-02-14T13:03:35.110Z,5.53
2019-02-14T13:06:05.044Z,5.47
2019-02-14T13:08:34.732Z,5.53
2019-02-14T13:11:05.167Z,5.55
2019-02-14T13:13:34.870Z,5.60
2019-02-14T13:16:05.046Z,5.77
2019-02-14T13:18:34.808Z,5.90
2019-02-14T13:21:05.200Z,6.40
2019-02-14T13:23:34.884Z,6.10
2019-02-14T13:26:05.472Z,5.92
2019-02-14T13:28:35.298Z,6.17
2019-02-14T13:31:05.036Z,6.93
2019-02-14T13:33:34.714Z,6.30
2019-02-14T13:36:05.840Z,5.80
2019-02-14T13:38:35.872Z,7.60
2019-02-14T13:41:05.673Z,7.40
2019-02-14T13:43:35.581Z,7.33
2019-02-14T13:46:05.414Z,6.30
2019-02-14T13:48:35.800Z,6.93
2019-02-14T13:51:05.499Z,7.67
2019-02-14T13:53:35.153Z,6.20
2019-02-14T13:56:05.882Z,7.03
2019-02-14T13:58:35.539Z,6.93
2019-02-14T14:01:05.510Z,7.73
2019-02-14T14:03:35.226Z,7.97
2019-02-14T14:06:05.012Z,6.80
2019-02-14T14:08:34.702Z,7.63
2019-02-14T14:11:05.101Z,7.53
2019-02-14T14:13:34.778Z,7.93
2019-02-14T14:16:04.900Z,6.97
2019-02-14T14:18:34.566Z,7.63
2019-02-14T14:21:04.918Z,7.80
2019-02-14T14:23:34.579Z,7.77
2019-02-14T14:26:05.301Z,7.92
2019-02-14T14:28:34.971Z,7.40
2019-02-14T14:31:04.721Z,8.07
2019-02-14T14:33:34.386Z,7.67
2019-02-14T14:36:04.949Z,7.40
2019-02-14T14:38:34.629Z,7.93
2019-02-14T14:41:05.094Z,8.70
2019-02-14T14:43:43.990Z,6.60
2019-02-14T14:46:22.727Z,6.40
2019-02-14T14:48:52.395Z,6.83
2019-02-14T14:51:22.160Z,9.00
2019-02-14T14:53:51.841Z,6.80
2019-02-14T14:56:21.508Z,7.93
2019-02-14T14:58:51.192Z,7.27
2019-02-14T15:01:20.856Z,7.22
2019-02-14T15:03:52.110Z,7.87
2019-02-14T15:06:21.959Z,7.73
2019-02-14T15:08:51.627Z,8.03
2019-02-14T15:11:21.368Z,9.00
2019-02-14T15:13:51.536Z,7.60
2019-02-14T15:16:21.175Z,9.43
2019-02-14T15:18:50.845Z,7.67
2019-02-14T15:21:20.503Z,7.87
2019-02-14T15:23:50.424Z,7.77
2019-02-14T15:26:20.109Z,7.63
2019-02-14T15:28:49.793Z,7.43
2019-02-14T15:31:19.464Z,7.70
2019-02-14T15:33:49.142Z,7.57
2019-02-14T15:36:18.826Z,6.77
2019-02-14T15:38:48.539Z,6.87
2019-02-14T15:41:18.212Z,6.40
2019-02-14T15:43:48.065Z,6.93
2019-02-14T15:46:18.151Z,6.63
2019-02-14T15:48:48.632Z,9.47
2019-02-14T15:51:20.033Z,8.13
2019-02-14T15:53:49.896Z,6.95
2019-02-14T15:56:19.597Z,7.60
2019-02-14T15:58:49.391Z,6.67
2019-02-14T16:01:19.125Z,8.50
2019-02-14T16:03:48.979Z,8.20
2019-02-14T16:06:18.641Z,10.83
2019-02-14T16:08:48.924Z,7.00
2019-02-14T16:11:18.839Z,6.93
2019-02-14T16:13:48.581Z,8.60
2019-02-14T16:16:20.147Z,7.35
2019-02-14T16:18:49.689Z,7.53
2019-02-14T16:21:19.365Z,7.00
2019-02-14T16:23:50.957Z,7.95
2019-02-14T16:26:20.423Z,7.30
2019-02-14T16:28:50.416Z,6.40
2019-02-14T16:31:20.184Z,8.73
2019-02-14T16:33:49.848Z,8.63
2019-02-14T16:36:20.778Z,7.73
2019-02-14T16:38:51.965Z,7.77
2019-02-14T16:41:21.629Z,8.63
2019-02-14T16:43:51.307Z,9.83
2019-02-14T16:46:20.982Z,8.80
2019-02-14T16:48:50.932Z,8.47
2019-02-14T16:51:20.624Z,6.47
2019-02-14T16:53:50.295Z,7.67
2019-02-14T16:56:19.987Z,8.37
2019-02-14T16:58:49.919Z,6.90
2019-02-14T17:01:19.601Z,7.53
2019-02-14T17:03:49.293Z,7.87
2019-02-14T17:06:18.963Z,7.70
2019-02-14T17:08:48.662Z,8.23
2019-02-14T17:11:18.409Z,10.17
2019-02-14T17:13:48.112Z,8.17
2019-02-14T17:16:17.816Z,8.10
2019-02-14T17:18:47.506Z,11.77
2019-02-14T17:21:17.181Z,10.65
2019-02-14T17:23:47.043Z,11.13
2019-02-14T17:26:16.729Z,10.93
2019-02-14T17:28:46.398Z,10.70
2019-02-14T17:31:16.187Z,8.83
2019-02-14T17:33:45.885Z,9.03
2019-02-14T17:36:15.797Z,10.20
2019-02-14T17:38:45.464Z,9.93
2019-02-14T17:41:15.137Z,10.18
2019-02-14T17:43:44.816Z,11.57
2019-02-14T17:46:14.537Z,12.27
2019-02-14T17:48:44.214Z,9.97
2019-02-14T17:51:14.912Z,10.27
2019-02-14T17:53:44.609Z,10.13
2019-02-14T17:56:14.524Z,9.43
2019-02-14T17:58:44.202Z,9.70
2019-02-14T18:01:13.901Z,11.37
2019-02-14T18:03:43.615Z,9.67
2019-02-14T18:06:13.285Z,10.10
2019-02-14T18:08:43.018Z,10.27
2019-02-14T18:11:12.785Z,11.40
2019-02-14T18:13:42.447Z,9.47
2019-02-14T18:16:12.112Z,9.73
2019-02-14T18:18:42.378Z,10.70
2019-02-14T18:21:12.053Z,10.10
2019-02-14T18:23:42.127Z,9.10
2019-02-14T18:26:11.792Z,10.15
2019-02-14T18:28:41.467Z,12.17
2019-02-14T18:31:11.171Z,11.10
2019-02-14T18:33:40.860Z,17.00
2019-02-14T18:36:10.614Z,16.95
2019-02-14T18:38:40.293Z,14.60
2019-02-14T18:41:09.986Z,13.30
2019-02-14T18:43:39.658Z,12.67
2019-02-14T18:46:09.430Z,10.57
2019-02-14T18:48:39.123Z,11.30
2019-02-14T18:51:08.930Z,20.57
2019-02-14T18:53:38.644Z,19.77
2019-02-14T18:56:08.377Z,20.90
2019-02-14T18:58:38.075Z,19.03
2019-02-14T19:01:07.882Z,16.30
2019-02-14T19:03:37.576Z,12.20
2019-02-14T19:06:07.554Z,16.37
2019-02-14T19:08:37.220Z,15.40
2019-02-14T19:11:14.952Z,10.60
2019-02-14T19:13:38.564Z,11.20
2019-02-14T19:16:08.310Z,11.13
2019-02-14T19:18:38.069Z,12.57
2019-02-14T19:21:07.813Z,11.90
2019-02-14T19:23:38.264Z,9.90
2019-02-14T19:26:08.095Z,12.13
2019-02-14T19:28:38.038Z,10.13
2019-02-14T19:31:07.798Z,10.90
2019-02-14T19:33:37.481Z,10.80
2019-02-14T19:36:07.169Z,10.60
2019-02-14T19:38:37.140Z,10.57
2019-02-14T19:41:06.802Z,11.87
2019-02-14T19:43:37.706Z,10.33
2019-02-14T19:46:07.413Z,10.63
2019-02-14T19:48:37.327Z,10.27
2019-02-14T19:51:07.032Z,13.43
2019-02-14T19:53:36.687Z,11.00
2019-02-14T19:56:06.363Z,13.90
2019-02-14T19:58:36.327Z,11.37
2019-02-14T20:01:06.181Z,11.17
2019-02-14T20:03:35.883Z,13.47
2019-02-14T20:06:05.826Z,13.40
2019-02-14T20:08:35.788Z,12.43
2019-02-14T20:11:05.477Z,12.97
2019-02-14T20:13:35.453Z,12.93
2019-02-14T20:16:05.268Z,15.57
2019-02-14T20:18:34.956Z,18.43
2019-02-14T20:21:05.358Z,18.67
2019-02-14T20:23:36.063Z,17.93
2019-02-14T20:26:06.696Z,18.37
2019-02-14T20:28:36.385Z,20.73
2019-02-14T20:31:06.059Z,19.60
2019-02-14T20:33:35.752Z,17.37
2019-02-14T20:36:05.446Z,18.47
2019-02-14T20:38:35.212Z,15.47
2019-02-14T20:41:05.038Z,19.33
2019-02-14T20:43:34.752Z,16.60
2019-02-14T20:46:05.237Z,15.27
2019-02-14T20:48:36.157Z,17.13
2019-02-14T20:51:06.083Z,15.13
2019-02-14T20:53:35.672Z,14.47
2019-02-14T20:56:05.424Z,17.47
2019-02-14T20:58:35.111Z,14.40
2019-02-14T21:01:08.398Z,17.17
2019-02-14T21:03:38.860Z,15.55
2019-02-14T21:06:08.577Z,16.93
2019-02-14T21:08:38.430Z,14.27
2019-02-14T21:11:08.144Z,16.77
2019-02-14T21:13:37.818Z,15.17
2019-02-14T21:16:07.610Z,14.03
2019-02-14T21:18:37.345Z,14.40
2019-02-14T21:21:07.018Z,15.50
2019-02-14T21:23:36.705Z,15.30
2019-02-14T21:26:06.709Z,16.12
2019-02-14T21:28:36.487Z,15.33
2019-02-14T21:31:06.251Z,16.43
2019-02-14T21:33:36.258Z,16.43
2019-02-14T21:36:06.140Z,18.03
2019-02-14T21:38:36.037Z,16.40
2019-02-14T21:41:05.786Z,20.67
2019-02-14T21:43:37.529Z,18.30
2019-02-14T21:46:07.914Z,20.47
2019-02-14T21:48:37.682Z,21.73
2019-02-14T21:51:07.383Z,19.40
2019-02-14T21:53:38.113Z,19.80
2019-02-14T21:56:07.794Z,21.57
2019-02-14T21:58:37.726Z,19.43
2019-02-14T22:01:07.630Z,19.07
2019-02-14T22:03:37.389Z,21.17
2019-02-14T22:06:07.049Z,19.23
2019-02-14T22:08:37.225Z,29.00
2019-02-14T22:11:06.918Z,21.47
2019-02-14T22:13:38.612Z,20.03
2019-02-14T22:16:08.389Z,19.37
2019-02-14T22:18:39.040Z,22.83
2019-02-14T22:21:08.725Z,22.77
2019-02-14T22:23:38.756Z,22.27
2019-02-14T22:26:10.538Z,21.83
2019-02-14T22:28:40.253Z,17.57
2019-02-14T22:31:10.042Z,18.00
2019-02-14T22:33:39.816Z,16.77
2019-02-14T22:36:09.773Z,16.50
2019-02-14T22:38:39.455Z,16.73
2019-02-14T22:41:09.143Z,19.65
2019-02-14T22:43:38.815Z,18.13
2019-02-14T22:46:08.584Z,17.30
2019-02-14T22:48:38.661Z,16.33
2019-02-14T22:51:09.340Z,19.52
2019-02-14T22:53:39.036Z,17.30
2019-02-14T22:56:08.736Z,19.40
2019-02-14T22:58:38.438Z,18.60
2019-02-14T23:01:08.360Z,17.20
2019-02-14T23:03:38.229Z,19.83
2019-02-14T23:06:07.910Z,20.43
2019-02-14T23:08:37.866Z,19.75
2019-02-14T23:11:07.879Z,22.67
2019-02-14T23:13:37.608Z,20.63
2019-02-14T23:16:07.308Z,17.97
2019-02-14T23:18:36.995Z,19.53
2019-02-14T23:21:06.915Z,19.40
2019-02-14T23:23:37.286Z,22.10
2019-02-14T23:26:06.961Z,21.40
2019-02-14T23:28:36.813Z,23.37
2019-02-14T23:31:06.610Z,21.57
2019-02-14T23:33:36.274Z,20.97
2019-02-14T23:36:05.967Z,22.87
2019-02-14T23:38:35.665Z,23.67
2019-02-14T23:41:05.342Z,23.50
2019-02-14T23:43:36.277Z,21.43
2019-02-14T23:46:05.960Z,20.63
2019-02-14T23:48:35.916Z,19.70
2019-02-14T23:51:05.607Z,18.12
2019-02-14T23:53:35.541Z,23.87
2019-02-14T23:56:05.232Z,18.17
2019-02-14T23:58:35.154Z,20.17
